sensor_id;sensor_type;location;lat;lon;timestamp;P1;durP1;ratioP1;P2;durP2;ratioP2
29500;SDS011;16450;50.288;10.966;2024-02-21T00:01:27;17.77;;;7.00;;
29500;SDS011;16450;50.288;10.966;2024-02-21T00:04:29;15.93;;;6.23;;
29500;SDS011;16450;50.288;10.966;2024-02-21T00:07:31;18.97;;;5.97;;
29500;SDS011;16450;50.288;10.966;2024-02-21T00:10:33;13.87;;;5.63;;
29500;SDS011;16450;50.288;10.966;2024-02-21T00:13:36;16.70;;;5.97;;
29500;SDS011;16450;50.288;10.966;2024-02-21T00:16:38;18.83;;;6.63;;
29500;SDS011;16450;50.288;10.966;2024-02-21T00:19:40;15.60;;;6.00;;
29500;SDS011;16450;50.288;10.966;2024-02-21T00:22:42;18.30;;;5.67;;
29500;SDS011;16450;50.288;10.966;2024-02-21T00:25:44;19.07;;;5.83;;
29500;SDS011;16450;50.288;10.966;2024-02-21T00:28:46;19.10;;;6.50;;
29500;SDS011;16450;50.288;10.966;2024-02-21T00:31:48;17.17;;;5.73;;
29500;SDS011;16450;50.288;10.966;2024-02-21T00:34:51;18.43;;;5.70;;
29500;SDS011;16450;50.288;10.966;2024-02-21T00:37:53;20.53;;;6.03;;
29500;SDS011;16450;50.288;10.966;2024-02-21T00:40:55;14.73;;;5.63;;
29500;SDS011;16450;50.288;10.966;2024-02-21T00:43:57;16.33;;;5.53;;
29500;SDS011;16450;50.288;10.966;2024-02-21T00:46:59;17.13;;;5.77;;
29500;SDS011;16450;50.288;10.966;2024-02-21T00:50:01;14.80;;;5.23;;
29500;SDS011;16450;50.288;10.966;2024-02-21T00:53:05;19.43;;;5.07;;
29500;SDS011;16450;50.288;10.966;2024-02-21T00:56:06;19.23;;;5.73;;
29500;SDS011;16450;50.288;10.966;2024-02-21T00:59:08;14.17;;;4.90;;
29500;SDS011;16450;50.288;10.966;2024-02-21T01:02:10;18.90;;;5.60;;
29500;SDS011;16450;50.288;10.966;2024-02-21T01:05:12;14.17;;;4.90;;
29500;SDS011;16450;50.288;10.966;2024-02-21T01:08:14;19.90;;;6.27;;
29500;SDS011;16450;50.288;10.966;2024-02-21T01:11:16;19.40;;;5.57;;
29500;SDS011;16450;50.288;10.966;2024-02-21T01:14:19;19.67;;;5.70;;
29500;SDS011;16450;50.288;10.966;2024-02-21T01:17:21;15.83;;;6.00;;
29500;SDS011;16450;50.288;10.966;2024-02-21T01:20:23;10.80;;;5.10;;
29500;SDS011;16450;50.288;10.966;2024-02-21T01:23:25;16.50;;;5.57;;
29500;SDS011;16450;50.288;10.966;2024-02-21T01:26:27;15.83;;;5.17;;
29500;SDS011;16450;50.288;10.966;2024-02-21T01:29:29;16.97;;;5.70;;
29500;SDS011;16450;50.288;10.966;2024-02-21T01:32:31;13.40;;;4.97;;
29500;SDS011;16450;50.288;10.966;2024-02-21T01:35:34;20.43;;;5.47;;
29500;SDS011;16450;50.288;10.966;2024-02-21T01:38:36;15.20;;;5.23;;
29500;SDS011;16450;50.288;10.966;2024-02-21T01:41:38;14.07;;;4.70;;
29500;SDS011;16450;50.288;10.966;2024-02-21T01:44:39;15.63;;;5.00;;
29500;SDS011;16450;50.288;10.966;2024-02-21T01:47:41;18.87;;;5.13;;
29500;SDS011;16450;50.288;10.966;2024-02-21T01:50:44;17.57;;;5.10;;
29500;SDS011;16450;50.288;10.966;2024-02-21T01:53:47;15.73;;;5.07;;
29500;SDS011;16450;50.288;10.966;2024-02-21T01:56:51;14.10;;;5.00;;
29500;SDS011;16450;50.288;10.966;2024-02-21T01:59:54;13.30;;;5.03;;
29500;SDS011;16450;50.288;10.966;2024-02-21T02:02:56;14.90;;;4.97;;
29500;SDS011;16450;50.288;10.966;2024-02-21T02:05:59;17.37;;;5.07;;
29500;SDS011;16450;50.288;10.966;2024-02-21T02:09:01;20.50;;;5.87;;
29500;SDS011;16450;50.288;10.966;2024-02-21T02:12:02;14.07;;;4.80;;
29500;SDS011;16450;50.288;10.966;2024-02-21T02:15:04;16.53;;;5.13;;
29500;SDS011;16450;50.288;10.966;2024-02-21T02:18:07;15.93;;;4.90;;
29500;SDS011;16450;50.288;10.966;2024-02-21T02:21:11;16.17;;;5.40;;
29500;SDS011;16450;50.288;10.966;2024-02-21T02:24:26;10.93;;;4.57;;
29500;SDS011;16450;50.288;10.966;2024-02-21T02:27:28;15.50;;;5.10;;
29500;SDS011;16450;50.288;10.966;2024-02-21T02:30:33;22.37;;;5.53;;
29500;SDS011;16450;50.288;10.966;2024-02-21T02:33:36;15.67;;;5.00;;
29500;SDS011;16450;50.288;10.966;2024-02-21T02:36:37;16.63;;;5.30;;
29500;SDS011;16450;50.288;10.966;2024-02-21T02:39:39;18.83;;;4.70;;
29500;SDS011;16450;50.288;10.966;2024-02-21T02:42:41;18.43;;;5.00;;
29500;SDS011;16450;50.288;10.966;2024-02-21T02:45:43;16.47;;;5.33;;
29500;SDS011;16450;50.288;10.966;2024-02-21T02:48:45;16.93;;;5.13;;
29500;SDS011;16450;50.288;10.966;2024-02-21T02:51:47;15.00;;;4.70;;
29500;SDS011;16450;50.288;10.966;2024-02-21T02:54:49;18.43;;;4.77;;
29500;SDS011;16450;50.288;10.966;2024-02-21T02:57:53;14.50;;;5.17;;
29500;SDS011;16450;50.288;10.966;2024-02-21T03:00:55;19.77;;;4.77;;
29500;SDS011;16450;50.288;10.966;2024-02-21T03:03:57;15.13;;;5.20;;
29500;SDS011;16450;50.288;10.966;2024-02-21T03:06:59;16.07;;;5.60;;
29500;SDS011;16450;50.288;10.966;2024-02-21T03:10:01;16.13;;;5.00;;
29500;SDS011;16450;50.288;10.966;2024-02-21T03:13:03;14.87;;;5.47;;
29500;SDS011;16450;50.288;10.966;2024-02-21T03:16:05;18.93;;;5.67;;
29500;SDS011;16450;50.288;10.966;2024-02-21T03:19:07;16.10;;;5.80;;
29500;SDS011;16450;50.288;10.966;2024-02-21T03:22:09;16.40;;;5.60;;
29500;SDS011;16450;50.288;10.966;2024-02-21T03:25:11;13.67;;;4.93;;
29500;SDS011;16450;50.288;10.966;2024-02-21T03:28:15;23.37;;;5.90;;
29500;SDS011;16450;50.288;10.966;2024-02-21T03:31:17;15.63;;;5.27;;
29500;SDS011;16450;50.288;10.966;2024-02-21T03:34:20;15.70;;;5.03;;
29500;SDS011;16450;50.288;10.966;2024-02-21T03:37:22;15.60;;;5.07;;
29500;SDS011;16450;50.288;10.966;2024-02-21T03:40:24;16.37;;;5.53;;
29500;SDS011;16450;50.288;10.966;2024-02-21T03:43:26;18.30;;;5.40;;
29500;SDS011;16450;50.288;10.966;2024-02-21T03:46:28;14.90;;;5.53;;
29500;SDS011;16450;50.288;10.966;2024-02-21T03:49:29;14.27;;;5.27;;
29500;SDS011;16450;50.288;10.966;2024-02-21T03:52:31;16.93;;;5.50;;
29500;SDS011;16450;50.288;10.966;2024-02-21T03:55:33;15.07;;;5.33;;
29500;SDS011;16450;50.288;10.966;2024-02-21T03:58:35;18.57;;;5.43;;
29500;SDS011;16450;50.288;10.966;2024-02-21T04:01:37;13.90;;;5.07;;
29500;SDS011;16450;50.288;10.966;2024-02-21T04:04:42;15.83;;;5.33;;
29500;SDS011;16450;50.288;10.966;2024-02-21T04:07:47;17.43;;;5.80;;
29500;SDS011;16450;50.288;10.966;2024-02-21T04:10:49;18.87;;;5.83;;
29500;SDS011;16450;50.288;10.966;2024-02-21T04:13:51;21.23;;;6.17;;
29500;SDS011;16450;50.288;10.966;2024-02-21T04:16:53;20.63;;;6.00;;
29500;SDS011;16450;50.288;10.966;2024-02-21T04:20:03;16.37;;;6.20;;
29500;SDS011;16450;50.288;10.966;2024-02-21T04:23:12;18.27;;;6.30;;
29500;SDS011;16450;50.288;10.966;2024-02-21T04:26:16;20.37;;;6.67;;
29500;SDS011;16450;50.288;10.966;2024-02-21T04:29:19;18.60;;;6.50;;
29500;SDS011;16450;50.288;10.966;2024-02-21T04:32:21;16.07;;;6.83;;
29500;SDS011;16450;50.288;10.966;2024-02-21T04:35:23;19.13;;;7.83;;
29500;SDS011;16450;50.288;10.966;2024-02-21T04:38:26;19.63;;;7.27;;
29500;SDS011;16450;50.288;10.966;2024-02-21T04:41:29;18.33;;;7.00;;
29500;SDS011;16450;50.288;10.966;2024-02-21T04:44:31;20.17;;;6.73;;
29500;SDS011;16450;50.288;10.966;2024-02-21T04:47:33;18.67;;;5.87;;
29500;SDS011;16450;50.288;10.966;2024-02-21T04:50:36;17.13;;;6.33;;
29500;SDS011;16450;50.288;10.966;2024-02-21T04:53:38;17.47;;;7.47;;
29500;SDS011;16450;50.288;10.966;2024-02-21T04:56:40;21.73;;;7.10;;
29500;SDS011;16450;50.288;10.966;2024-02-21T04:59:43;19.00;;;6.70;;
29500;SDS011;16450;50.288;10.966;2024-02-21T05:02:45;21.67;;;6.97;;
29500;SDS011;16450;50.288;10.966;2024-02-21T05:05:47;22.47;;;7.60;;
29500;SDS011;16450;50.288;10.966;2024-02-21T05:08:49;18.83;;;7.30;;
29500;SDS011;16450;50.288;10.966;2024-02-21T05:11:51;25.80;;;7.40;;
29500;SDS011;16450;50.288;10.966;2024-02-21T05:14:53;18.07;;;7.37;;
29500;SDS011;16450;50.288;10.966;2024-02-21T05:17:54;20.07;;;7.17;;
29500;SDS011;16450;50.288;10.966;2024-02-21T05:20:57;19.10;;;7.20;;
29500;SDS011;16450;50.288;10.966;2024-02-21T05:23:59;15.40;;;6.77;;
29500;SDS011;16450;50.288;10.966;2024-02-21T05:27:01;16.90;;;7.40;;
29500;SDS011;16450;50.288;10.966;2024-02-21T05:30:04;17.13;;;6.67;;
29500;SDS011;16450;50.288;10.966;2024-02-21T05:33:07;16.63;;;7.33;;
29500;SDS011;16450;50.288;10.966;2024-02-21T05:36:10;24.63;;;8.07;;
29500;SDS011;16450;50.288;10.966;2024-02-21T05:39:13;23.07;;;7.77;;
29500;SDS011;16450;50.288;10.966;2024-02-21T05:42:15;22.17;;;8.10;;
29500;SDS011;16450;50.288;10.966;2024-02-21T05:45:17;21.27;;;8.73;;
29500;SDS011;16450;50.288;10.966;2024-02-21T05:48:20;18.87;;;7.83;;
29500;SDS011;16450;50.288;10.966;2024-02-21T05:51:23;20.13;;;8.03;;
29500;SDS011;16450;50.288;10.966;2024-02-21T05:54:25;20.67;;;8.37;;
29500;SDS011;16450;50.288;10.966;2024-02-21T05:57:27;20.90;;;8.57;;
29500;SDS011;16450;50.288;10.966;2024-02-21T06:00:29;19.50;;;7.30;;
29500;SDS011;16450;50.288;10.966;2024-02-21T06:03:31;20.93;;;8.27;;
29500;SDS011;16450;50.288;10.966;2024-02-21T06:06:33;19.13;;;8.07;;
29500;SDS011;16450;50.288;10.966;2024-02-21T06:09:35;23.23;;;7.57;;
29500;SDS011;16450;50.288;10.966;2024-02-21T06:12:37;16.70;;;7.70;;
29500;SDS011;16450;50.288;10.966;2024-02-21T06:15:39;17.10;;;7.53;;
29500;SDS011;16450;50.288;10.966;2024-02-21T06:18:40;16.30;;;6.83;;
29500;SDS011;16450;50.288;10.966;2024-02-21T06:21:42;24.13;;;8.17;;
29500;SDS011;16450;50.288;10.966;2024-02-21T06:24:44;23.73;;;8.40;;
29500;SDS011;16450;50.288;10.966;2024-02-21T06:27:46;18.90;;;8.17;;
29500;SDS011;16450;50.288;10.966;2024-02-21T06:30:48;16.97;;;7.30;;
29500;SDS011;16450;50.288;10.966;2024-02-21T06:33:50;22.03;;;7.47;;
29500;SDS011;16450;50.288;10.966;2024-02-21T06:36:52;21.17;;;7.73;;
29500;SDS011;16450;50.288;10.966;2024-02-21T06:39:54;19.37;;;7.70;;
29500;SDS011;16450;50.288;10.966;2024-02-21T06:42:56;17.80;;;7.70;;
29500;SDS011;16450;50.288;10.966;2024-02-21T06:45:57;23.00;;;7.60;;
29500;SDS011;16450;50.288;10.966;2024-02-21T06:49:00;21.97;;;8.50;;
29500;SDS011;16450;50.288;10.966;2024-02-21T06:52:03;20.73;;;8.30;;
29500;SDS011;16450;50.288;10.966;2024-02-21T06:55:06;22.33;;;8.00;;
29500;SDS011;16450;50.288;10.966;2024-02-21T06:58:08;24.70;;;7.83;;
29500;SDS011;16450;50.288;10.966;2024-02-21T07:01:13;15.43;;;7.13;;
29500;SDS011;16450;50.288;10.966;2024-02-21T07:04:15;17.20;;;7.33;;
29500;SDS011;16450;50.288;10.966;2024-02-21T07:07:17;20.10;;;7.33;;
29500;SDS011;16450;50.288;10.966;2024-02-21T07:10:19;17.97;;;7.20;;
29500;SDS011;16450;50.288;10.966;2024-02-21T07:13:22;22.47;;;7.70;;
29500;SDS011;16450;50.288;10.966;2024-02-21T07:16:24;20.03;;;7.47;;
29500;SDS011;16450;50.288;10.966;2024-02-21T07:19:27;19.63;;;7.50;;
29500;SDS011;16450;50.288;10.966;2024-02-21T07:22:29;19.33;;;7.30;;
29500;SDS011;16450;50.288;10.966;2024-02-21T07:25:31;18.13;;;7.67;;
29500;SDS011;16450;50.288;10.966;2024-02-21T07:28:33;19.70;;;7.70;;
29500;SDS011;16450;50.288;10.966;2024-02-21T07:31:42;18.30;;;7.70;;
29500;SDS011;16450;50.288;10.966;2024-02-21T07:34:44;21.87;;;8.10;;
29500;SDS011;16450;50.288;10.966;2024-02-21T07:37:46;22.57;;;8.03;;
29500;SDS011;16450;50.288;10.966;2024-02-21T07:40:48;22.43;;;9.17;;
29500;SDS011;16450;50.288;10.966;2024-02-21T07:43:49;24.27;;;9.07;;
29500;SDS011;16450;50.288;10.966;2024-02-21T07:46:52;19.67;;;8.03;;
29500;SDS011;16450;50.288;10.966;2024-02-21T07:49:54;24.83;;;7.83;;
29500;SDS011;16450;50.288;10.966;2024-02-21T07:52:56;20.67;;;8.50;;
29500;SDS011;16450;50.288;10.966;2024-02-21T07:55:58;19.80;;;8.03;;
29500;SDS011;16450;50.288;10.966;2024-02-21T07:58:59;26.00;;;8.77;;
29500;SDS011;16450;50.288;10.966;2024-02-21T08:02:01;24.53;;;8.93;;
29500;SDS011;16450;50.288;10.966;2024-02-21T08:05:04;19.70;;;7.67;;
29500;SDS011;16450;50.288;10.966;2024-02-21T08:08:06;21.90;;;7.90;;
29500;SDS011;16450;50.288;10.966;2024-02-21T08:11:09;17.63;;;7.23;;
29500;SDS011;16450;50.288;10.966;2024-02-21T08:14:11;23.67;;;8.23;;
29500;SDS011;16450;50.288;10.966;2024-02-21T08:17:13;21.27;;;7.40;;
29500;SDS011;16450;50.288;10.966;2024-02-21T08:20:15;18.03;;;7.00;;
29500;SDS011;16450;50.288;10.966;2024-02-21T08:23:18;21.83;;;7.60;;
29500;SDS011;16450;50.288;10.966;2024-02-21T08:26:20;15.70;;;6.97;;
29500;SDS011;16450;50.288;10.966;2024-02-21T08:29:22;14.00;;;6.87;;
29500;SDS011;16450;50.288;10.966;2024-02-21T08:32:24;16.53;;;8.13;;
29500;SDS011;16450;50.288;10.966;2024-02-21T08:35:26;22.37;;;7.53;;
29500;SDS011;16450;50.288;10.966;2024-02-21T08:38:28;18.77;;;7.20;;
29500;SDS011;16450;50.288;10.966;2024-02-21T08:41:30;22.33;;;7.40;;
29500;SDS011;16450;50.288;10.966;2024-02-21T08:44:52;24.43;;;10.73;;
29500;SDS011;16450;50.288;10.966;2024-02-21T08:47:54;20.50;;;10.10;;
29500;SDS011;16450;50.288;10.966;2024-02-21T08:50:55;18.10;;;7.57;;
29500;SDS011;16450;50.288;10.966;2024-02-21T08:53:57;23.13;;;10.17;;
29500;SDS011;16450;50.288;10.966;2024-02-21T08:57:01;18.90;;;10.10;;
29500;SDS011;16450;50.288;10.966;2024-02-21T09:00:05;22.83;;;10.00;;
29500;SDS011;16450;50.288;10.966;2024-02-21T09:03:11;24.00;;;9.20;;
29500;SDS011;16450;50.288;10.966;2024-02-21T09:06:12;20.33;;;9.40;;
29500;SDS011;16450;50.288;10.966;2024-02-21T09:09:15;19.33;;;8.57;;
29500;SDS011;16450;50.288;10.966;2024-02-21T09:12:17;20.47;;;7.80;;
29500;SDS011;16450;50.288;10.966;2024-02-21T09:15:19;22.83;;;8.20;;
29500;SDS011;16450;50.288;10.966;2024-02-21T09:18:21;15.53;;;7.93;;
29500;SDS011;16450;50.288;10.966;2024-02-21T09:21:23;15.60;;;7.70;;
29500;SDS011;16450;50.288;10.966;2024-02-21T09:24:25;19.27;;;9.07;;
29500;SDS011;16450;50.288;10.966;2024-02-21T09:27:26;21.93;;;8.03;;
29500;SDS011;16450;50.288;10.966;2024-02-21T09:30:28;18.00;;;8.63;;
29500;SDS011;16450;50.288;10.966;2024-02-21T09:33:30;17.03;;;7.77;;
29500;SDS011;16450;50.288;10.966;2024-02-21T09:36:33;21.53;;;8.80;;
29500;SDS011;16450;50.288;10.966;2024-02-21T09:39:35;18.03;;;7.70;;
29500;SDS011;16450;50.288;10.966;2024-02-21T09:42:38;16.63;;;8.20;;
29500;SDS011;16450;50.288;10.966;2024-02-21T09:45:41;16.33;;;7.67;;
29500;SDS011;16450;50.288;10.966;2024-02-21T09:52:01;17.97;;;7.40;;
29500;SDS011;16450;50.288;10.966;2024-02-21T09:55:05;15.07;;;6.93;;
29500;SDS011;16450;50.288;10.966;2024-02-21T09:58:10;16.33;;;6.90;;
29500;SDS011;16450;50.288;10.966;2024-02-21T10:01:12;12.67;;;6.40;;
29500;SDS011;16450;50.288;10.966;2024-02-21T10:04:33;19.67;;;7.30;;
29500;SDS011;16450;50.288;10.966;2024-02-21T10:07:36;17.77;;;7.30;;
29500;SDS011;16450;50.288;10.966;2024-02-21T10:10:45;20.33;;;7.63;;
29500;SDS011;16450;50.288;10.966;2024-02-21T10:13:47;14.97;;;6.67;;
29500;SDS011;16450;50.288;10.966;2024-02-21T10:16:56;16.13;;;5.90;;
29500;SDS011;16450;50.288;10.966;2024-02-21T10:20:11;16.03;;;5.93;;
29500;SDS011;16450;50.288;10.966;2024-02-21T10:23:15;17.27;;;5.73;;
29500;SDS011;16450;50.288;10.966;2024-02-21T10:26:18;14.10;;;5.17;;
29500;SDS011;16450;50.288;10.966;2024-02-21T10:29:20;12.43;;;5.23;;
29500;SDS011;16450;50.288;10.966;2024-02-21T10:32:22;18.27;;;6.00;;
29500;SDS011;16450;50.288;10.966;2024-02-21T10:35:28;12.57;;;5.00;;
29500;SDS011;16450;50.288;10.966;2024-02-21T10:38:31;13.10;;;5.23;;
29500;SDS011;16450;50.288;10.966;2024-02-21T10:41:35;15.30;;;5.30;;
29500;SDS011;16450;50.288;10.966;2024-02-21T10:44:39;11.47;;;4.80;;
29500;SDS011;16450;50.288;10.966;2024-02-21T10:47:42;14.47;;;4.90;;
29500;SDS011;16450;50.288;10.966;2024-02-21T10:51:03;12.07;;;5.10;;
29500;SDS011;16450;50.288;10.966;2024-02-21T10:54:36;13.43;;;4.80;;
29500;SDS011;16450;50.288;10.966;2024-02-21T10:57:45;11.53;;;4.60;;
29500;SDS011;16450;50.288;10.966;2024-02-21T11:00:48;11.00;;;4.57;;
29500;SDS011;16450;50.288;10.966;2024-02-21T11:03:52;13.73;;;4.73;;
29500;SDS011;16450;50.288;10.966;2024-02-21T11:06:56;9.43;;;4.57;;
29500;SDS011;16450;50.288;10.966;2024-02-21T11:09:58;12.60;;;4.10;;
29500;SDS011;16450;50.288;10.966;2024-02-21T11:13:07;11.13;;;3.83;;
29500;SDS011;16450;50.288;10.966;2024-02-21T11:16:11;10.97;;;4.20;;
29500;SDS011;16450;50.288;10.966;2024-02-21T11:19:23;11.73;;;4.50;;
29500;SDS011;16450;50.288;10.966;2024-02-21T11:22:27;11.87;;;5.20;;
29500;SDS011;16450;50.288;10.966;2024-02-21T11:25:32;10.47;;;3.90;;
29500;SDS011;16450;50.288;10.966;2024-02-21T11:28:36;13.73;;;3.83;;
29500;SDS011;16450;50.288;10.966;2024-02-21T11:31:40;11.73;;;3.87;;
29500;SDS011;16450;50.288;10.966;2024-02-21T11:34:56;13.07;;;3.70;;
29500;SDS011;16450;50.288;10.966;2024-02-21T11:38:13;9.33;;;3.70;;
29500;SDS011;16450;50.288;10.966;2024-02-21T11:41:18;9.63;;;3.77;;
29500;SDS011;16450;50.288;10.966;2024-02-21T11:44:22;10.67;;;3.63;;
29500;SDS011;16450;50.288;10.966;2024-02-21T11:47:24;9.40;;;3.90;;
29500;SDS011;16450;50.288;10.966;2024-02-21T11:50:26;12.73;;;4.03;;
29500;SDS011;16450;50.288;10.966;2024-02-21T11:53:29;10.63;;;3.50;;
29500;SDS011;16450;50.288;10.966;2024-02-21T11:56:36;11.43;;;3.40;;
29500;SDS011;16450;50.288;10.966;2024-02-21T11:59:39;13.80;;;3.50;;
29500;SDS011;16450;50.288;10.966;2024-02-21T12:02:42;12.00;;;3.60;;
29500;SDS011;16450;50.288;10.966;2024-02-21T12:05:45;11.93;;;3.77;;
29500;SDS011;16450;50.288;10.966;2024-02-21T12:08:48;11.37;;;3.80;;
29500;SDS011;16450;50.288;10.966;2024-02-21T12:11:59;13.47;;;4.00;;
29500;SDS011;16450;50.288;10.966;2024-02-21T12:15:07;13.30;;;4.37;;
29500;SDS011;16450;50.288;10.966;2024-02-21T12:18:10;8.73;;;3.43;;
29500;SDS011;16450;50.288;10.966;2024-02-21T12:21:12;9.30;;;3.90;;
29500;SDS011;16450;50.288;10.966;2024-02-21T12:24:15;9.80;;;3.67;;
29500;SDS011;16450;50.288;10.966;2024-02-21T12:27:18;8.57;;;3.63;;
29500;SDS011;16450;50.288;10.966;2024-02-21T12:30:20;9.03;;;3.80;;
29500;SDS011;16450;50.288;10.966;2024-02-21T12:33:22;12.87;;;3.60;;
29500;SDS011;16450;50.288;10.966;2024-02-21T12:36:24;7.77;;;3.60;;
29500;SDS011;16450;50.288;10.966;2024-02-21T12:39:27;10.17;;;4.20;;
29500;SDS011;16450;50.288;10.966;2024-02-21T12:42:30;12.33;;;3.73;;
29500;SDS011;16450;50.288;10.966;2024-02-21T12:45:32;12.70;;;4.10;;
29500;SDS011;16450;50.288;10.966;2024-02-21T12:48:35;11.73;;;4.13;;
29500;SDS011;16450;50.288;10.966;2024-02-21T12:51:37;13.77;;;3.73;;
29500;SDS011;16450;50.288;10.966;2024-02-21T12:54:40;12.23;;;3.53;;
29500;SDS011;16450;50.288;10.966;2024-02-21T12:57:43;11.20;;;3.50;;
29500;SDS011;16450;50.288;10.966;2024-02-21T13:00:45;10.13;;;3.60;;
29500;SDS011;16450;50.288;10.966;2024-02-21T13:03:47;8.97;;;3.60;;
29500;SDS011;16450;50.288;10.966;2024-02-21T13:06:49;7.30;;;3.30;;
29500;SDS011;16450;50.288;10.966;2024-02-21T13:09:51;10.30;;;4.00;;
29500;SDS011;16450;50.288;10.966;2024-02-21T13:12:53;11.37;;;3.63;;
29500;SDS011;16450;50.288;10.966;2024-02-21T13:15:55;8.83;;;3.77;;
29500;SDS011;16450;50.288;10.966;2024-02-21T13:18:58;13.13;;;3.83;;
29500;SDS011;16450;50.288;10.966;2024-02-21T13:22:00;8.90;;;3.30;;
29500;SDS011;16450;50.288;10.966;2024-02-21T13:25:04;8.60;;;3.50;;
29500;SDS011;16450;50.288;10.966;2024-02-21T13:28:08;8.23;;;3.53;;
29500;SDS011;16450;50.288;10.966;2024-02-21T13:31:11;13.53;;;3.53;;
29500;SDS011;16450;50.288;10.966;2024-02-21T13:34:13;9.23;;;3.40;;
29500;SDS011;16450;50.288;10.966;2024-02-21T13:37:15;9.30;;;3.80;;
29500;SDS011;16450;50.288;10.966;2024-02-21T13:40:17;9.60;;;3.20;;
29500;SDS011;16450;50.288;10.966;2024-02-21T13:43:19;10.37;;;3.33;;
29500;SDS011;16450;50.288;10.966;2024-02-21T13:46:20;10.77;;;3.40;;
29500;SDS011;16450;50.288;10.966;2024-02-21T13:49:23;8.37;;;3.63;;
29500;SDS011;16450;50.288;10.966;2024-02-21T13:52:25;8.20;;;3.13;;
29500;SDS011;16450;50.288;10.966;2024-02-21T13:55:30;7.47;;;3.37;;
29500;SDS011;16450;50.288;10.966;2024-02-21T13:58:32;8.30;;;3.40;;
29500;SDS011;16450;50.288;10.966;2024-02-21T14:01:34;9.87;;;3.30;;
29500;SDS011;16450;50.288;10.966;2024-02-21T14:04:37;9.50;;;3.40;;
29500;SDS011;16450;50.288;10.966;2024-02-21T14:07:39;13.90;;;3.27;;
29500;SDS011;16450;50.288;10.966;2024-02-21T14:10:41;7.73;;;2.70;;
29500;SDS011;16450;50.288;10.966;2024-02-21T14:13:43;9.30;;;3.13;;
29500;SDS011;16450;50.288;10.966;2024-02-21T14:16:46;9.67;;;3.00;;
29500;SDS011;16450;50.288;10.966;2024-02-21T14:19:49;7.63;;;3.10;;
29500;SDS011;16450;50.288;10.966;2024-02-21T14:22:51;9.13;;;3.30;;
29500;SDS011;16450;50.288;10.966;2024-02-21T14:25:53;9.63;;;3.20;;
29500;SDS011;16450;50.288;10.966;2024-02-21T14:28:55;12.47;;;3.30;;
29500;SDS011;16450;50.288;10.966;2024-02-21T14:31:58;6.80;;;2.73;;
29500;SDS011;16450;50.288;10.966;2024-02-21T14:35:00;8.10;;;2.80;;
29500;SDS011;16450;50.288;10.966;2024-02-21T14:38:06;8.50;;;2.90;;
29500;SDS011;16450;50.288;10.966;2024-02-21T14:41:09;9.37;;;2.73;;
29500;SDS011;16450;50.288;10.966;2024-02-21T14:44:13;6.03;;;2.40;;
29500;SDS011;16450;50.288;10.966;2024-02-21T14:47:15;8.13;;;3.37;;
29500;SDS011;16450;50.288;10.966;2024-02-21T14:50:17;7.97;;;2.90;;
29500;SDS011;16450;50.288;10.966;2024-02-21T14:53:19;11.27;;;3.50;;
29500;SDS011;16450;50.288;10.966;2024-02-21T14:56:21;7.27;;;2.70;;
29500;SDS011;16450;50.288;10.966;2024-02-21T14:59:25;8.27;;;2.90;;
29500;SDS011;16450;50.288;10.966;2024-02-21T15:02:35;8.70;;;3.10;;
29500;SDS011;16450;50.288;10.966;2024-02-21T15:05:36;11.27;;;3.03;;
29500;SDS011;16450;50.288;10.966;2024-02-21T15:08:40;7.67;;;2.90;;
29500;SDS011;16450;50.288;10.966;2024-02-21T15:11:42;7.87;;;2.73;;
29500;SDS011;16450;50.288;10.966;2024-02-21T15:14:44;7.77;;;2.63;;
29500;SDS011;16450;50.288;10.966;2024-02-21T15:17:46;11.00;;;2.93;;
29500;SDS011;16450;50.288;10.966;2024-02-21T15:20:48;8.27;;;2.80;;
29500;SDS011;16450;50.288;10.966;2024-02-21T15:23:50;6.70;;;3.17;;
29500;SDS011;16450;50.288;10.966;2024-02-21T15:26:52;7.50;;;3.10;;
29500;SDS011;16450;50.288;10.966;2024-02-21T15:29:54;10.03;;;3.03;;
29500;SDS011;16450;50.288;10.966;2024-02-21T15:32:56;9.37;;;3.10;;
29500;SDS011;16450;50.288;10.966;2024-02-21T15:36:02;8.93;;;3.03;;
29500;SDS011;16450;50.288;10.966;2024-02-21T15:39:05;8.37;;;3.00;;
29500;SDS011;16450;50.288;10.966;2024-02-21T15:42:07;8.70;;;3.00;;
29500;SDS011;16450;50.288;10.966;2024-02-21T15:45:08;13.80;;;2.70;;
29500;SDS011;16450;50.288;10.966;2024-02-21T15:48:11;6.67;;;2.30;;
29500;SDS011;16450;50.288;10.966;2024-02-21T15:51:15;8.73;;;2.77;;
29500;SDS011;16450;50.288;10.966;2024-02-21T15:54:16;5.40;;;2.60;;
29500;SDS011;16450;50.288;10.966;2024-02-21T15:57:24;6.23;;;2.63;;
29500;SDS011;16450;50.288;10.966;2024-02-21T16:00:26;11.17;;;2.53;;
29500;SDS011;16450;50.288;10.966;2024-02-21T16:03:28;8.43;;;2.67;;
29500;SDS011;16450;50.288;10.966;2024-02-21T16:06:29;6.83;;;2.67;;
29500;SDS011;16450;50.288;10.966;2024-02-21T16:09:31;8.27;;;2.60;;
29500;SDS011;16450;50.288;10.966;2024-02-21T16:12:33;8.10;;;2.13;;
29500;SDS011;16450;50.288;10.966;2024-02-21T16:15:35;12.73;;;5.23;;
29500;SDS011;16450;50.288;10.966;2024-02-21T16:18:37;14.60;;;5.53;;
29500;SDS011;16450;50.288;10.966;2024-02-21T16:21:39;16.80;;;7.10;;
29500;SDS011;16450;50.288;10.966;2024-02-21T16:24:41;20.87;;;9.70;;
29500;SDS011;16450;50.288;10.966;2024-02-21T16:27:43;15.37;;;5.67;;
29500;SDS011;16450;50.288;10.966;2024-02-21T16:30:45;10.10;;;3.63;;
29500;SDS011;16450;50.288;10.966;2024-02-21T16:33:47;9.27;;;3.43;;
29500;SDS011;16450;50.288;10.966;2024-02-21T16:36:49;12.13;;;3.67;;
29500;SDS011;16450;50.288;10.966;2024-02-21T16:39:50;10.57;;;4.27;;
29500;SDS011;16450;50.288;10.966;2024-02-21T16:42:53;14.60;;;4.00;;
29500;SDS011;16450;50.288;10.966;2024-02-21T16:45:55;12.50;;;4.97;;
29500;SDS011;16450;50.288;10.966;2024-02-21T16:48:57;10.40;;;5.07;;
29500;SDS011;16450;50.288;10.966;2024-02-21T16:52:00;11.23;;;4.00;;
29500;SDS011;16450;50.288;10.966;2024-02-21T16:55:03;9.03;;;3.23;;
29500;SDS011;16450;50.288;10.966;2024-02-21T16:58:07;9.87;;;4.50;;
29500;SDS011;16450;50.288;10.966;2024-02-21T17:01:09;9.03;;;4.40;;
29500;SDS011;16450;50.288;10.966;2024-02-21T17:04:14;7.43;;;2.83;;
29500;SDS011;16450;50.288;10.966;2024-02-21T17:07:17;16.23;;;8.47;;
29500;SDS011;16450;50.288;10.966;2024-02-21T17:10:19;10.30;;;3.43;;
29500;SDS011;16450;50.288;10.966;2024-02-21T17:13:21;15.30;;;5.33;;
29500;SDS011;16450;50.288;10.966;2024-02-21T17:16:23;46.63;;;22.23;;
29500;SDS011;16450;50.288;10.966;2024-02-21T17:19:25;29.57;;;13.90;;
29500;SDS011;16450;50.288;10.966;2024-02-21T17:22:27;12.47;;;5.83;;
29500;SDS011;16450;50.288;10.966;2024-02-21T17:25:32;14.60;;;7.57;;
29500;SDS011;16450;50.288;10.966;2024-02-21T17:28:34;10.07;;;4.60;;
29500;SDS011;16450;50.288;10.966;2024-02-21T17:31:36;10.10;;;3.40;;
29500;SDS011;16450;50.288;10.966;2024-02-21T17:34:38;9.30;;;3.43;;
29500;SDS011;16450;50.288;10.966;2024-02-21T17:37:41;9.03;;;3.30;;
29500;SDS011;16450;50.288;10.966;2024-02-21T17:40:42;10.50;;;2.83;;
29500;SDS011;16450;50.288;10.966;2024-02-21T17:43:44;6.73;;;2.80;;
29500;SDS011;16450;50.288;10.966;2024-02-21T17:46:46;9.23;;;2.90;;
29500;SDS011;16450;50.288;10.966;2024-02-21T17:49:49;7.90;;;2.73;;
29500;SDS011;16450;50.288;10.966;2024-02-21T17:52:52;8.87;;;3.20;;
29500;SDS011;16450;50.288;10.966;2024-02-21T17:55:57;7.00;;;3.07;;